createdAt,value
2023-04-26T00:00:15.959Z,19.98
2023-04-26T00:01:16.144Z,19.99
2023-04-26T00:02:14.987Z,19.99
2023-04-26T00:03:16.196Z,19.98
2023-04-26T00:04:15.190Z,19.98
2023-04-26T00:05:15.271Z,19.97
2023-04-26T00:06:16.014Z,19.98
2023-04-26T00:07:16.083Z,19.98
2023-04-26T00:08:16.068Z,19.98
2023-04-26T00:09:15.141Z,19.97
2023-04-26T00:10:16.152Z,19.97
2023-04-26T00:11:15.159Z,19.97
2023-04-26T00:12:16.176Z,19.96
2023-04-26T00:13:15.243Z,19.97
2023-04-26T00:14:15.171Z,19.96
2023-04-26T00:15:15.252Z,19.96
2023-04-26T00:16:15.242Z,19.96
2023-04-26T00:17:16.178Z,19.96
2023-04-26T00:18:16.219Z,19.96
2023-04-26T00:19:16.234Z,19.95
2023-04-26T00:20:16.289Z,19.96
2023-04-26T00:21:16.330Z,19.94
2023-04-26T00:22:16.368Z,19.95
2023-04-26T00:23:16.421Z,19.95
2023-04-26T00:24:16.453Z,19.94
2023-04-26T00:25:16.504Z,19.93
2023-04-26T00:26:16.551Z,19.95
2023-04-26T00:27:16.583Z,19.94
2023-04-26T00:28:15.606Z,19.93
2023-04-26T00:29:16.783Z,19.93
2023-04-26T00:30:16.703Z,19.94
2023-04-26T00:31:15.824Z,19.94
2023-04-26T00:32:16.796Z,19.93
2023-04-26T00:33:16.833Z,19.93
2023-04-26T00:34:16.864Z,19.93
2023-04-26T00:35:16.916Z,19.92
2023-04-26T00:36:16.975Z,19.93
2023-04-26T00:37:17.016Z,19.92
2023-04-26T00:38:17.055Z,19.92
2023-04-26T00:39:16.013Z,19.92
2023-04-26T00:40:17.049Z,19.92
2023-04-26T00:41:16.997Z,19.92
2023-04-26T00:42:17.001Z,19.92
2023-04-26T00:43:16.012Z,19.91
2023-04-26T00:44:15.985Z,19.90
2023-04-26T00:45:16.016Z,19.91
2023-04-26T00:46:16.073Z,19.91
2023-04-26T00:47:15.978Z,19.90
2023-04-26T00:48:16.972Z,19.90
2023-04-26T00:49:15.995Z,19.90
2023-04-26T00:50:16.976Z,19.90
2023-04-26T00:51:16.975Z,19.89
2023-04-26T00:52:16.960Z,19.89
2023-04-26T00:53:16.977Z,19.89
2023-04-26T00:54:16.933Z,19.89
2023-04-26T00:55:15.949Z,19.89
2023-04-26T00:56:16.972Z,19.89
2023-04-26T00:57:16.941Z,19.89
2023-04-26T00:58:15.954Z,19.89
2023-04-26T00:59:15.935Z,19.89
2023-04-26T01:00:16.923Z,19.89
2023-04-26T01:01:17.004Z,19.88
2023-04-26T01:02:16.983Z,19.88
2023-04-26T01:03:17.062Z,19.88
2023-04-26T01:04:17.045Z,19.87
2023-04-26T01:05:15.888Z,19.88
2023-04-26T01:06:15.893Z,19.87
2023-04-26T01:07:16.890Z,19.88
2023-04-26T01:08:16.911Z,19.87
2023-04-26T01:09:16.485Z,19.87
2023-04-26T01:10:16.495Z,19.87
2023-04-26T01:11:16.953Z,19.87
2023-04-26T01:12:16.962Z,19.87
2023-04-26T01:13:16.962Z,19.87
2023-04-26T01:14:16.992Z,19.86
2023-04-26T01:15:15.955Z,19.86
2023-04-26T01:16:16.989Z,19.86
2023-04-26T01:17:16.224Z,19.86
2023-04-26T01:18:17.398Z,19.85
2023-04-26T01:19:16.938Z,19.86
2023-04-26T01:20:15.946Z,19.86
2023-04-26T01:21:16.916Z,19.86
2023-04-26T01:22:15.929Z,19.85
2023-04-26T01:23:16.928Z,19.85
2023-04-26T01:24:16.930Z,19.85
2023-04-26T01:25:16.915Z,19.85
2023-04-26T01:26:16.940Z,19.84
2023-04-26T01:27:15.921Z,19.84
2023-04-26T01:28:16.926Z,19.85
2023-04-26T01:29:16.981Z,19.85
2023-04-26T01:30:17.038Z,19.85
2023-04-26T01:31:17.017Z,19.85
2023-04-26T01:32:17.094Z,19.83
2023-04-26T01:33:16.936Z,19.84
2023-04-26T01:34:16.902Z,19.84
2023-04-26T01:35:15.916Z,19.83
2023-04-26T01:36:16.920Z,19.83
2023-04-26T01:37:16.923Z,19.83
2023-04-26T01:38:15.932Z,19.83
2023-04-26T01:39:16.926Z,19.83
2023-04-26T01:40:16.923Z,19.83
2023-04-26T01:41:16.929Z,19.83
2023-04-26T01:42:16.914Z,19.82
2023-04-26T01:43:16.961Z,19.83
2023-04-26T01:44:16.930Z,19.82
2023-04-26T01:45:15.918Z,19.83
2023-04-26T01:46:16.992Z,19.82
2023-04-26T01:47:16.909Z,19.82
2023-04-26T01:48:16.910Z,19.82
2023-04-26T01:49:15.931Z,19.81
2023-04-26T01:50:16.899Z,19.82
2023-04-26T01:51:16.921Z,19.82
2023-04-26T01:52:16.912Z,19.82
2023-04-26T01:53:16.909Z,19.81
2023-04-26T01:54:16.905Z,19.81
2023-04-26T01:55:15.924Z,19.81
2023-04-26T01:56:16.977Z,19.81
2023-04-26T01:57:15.916Z,19.80
2023-04-26T01:58:16.936Z,19.80
2023-04-26T01:59:16.948Z,19.81
2023-04-26T02:00:18.633Z,19.80
2023-04-26T02:01:16.976Z,19.80
2023-04-26T02:02:16.964Z,19.80
2023-04-26T02:03:16.023Z,19.80
2023-04-26T02:04:16.909Z,19.80
2023-04-26T02:05:15.963Z,19.79
2023-04-26T02:06:16.910Z,19.79
2023-04-26T02:07:16.908Z,19.79
2023-04-26T02:08:15.891Z,19.79
2023-04-26T02:09:16.934Z,19.79
2023-04-26T02:10:16.873Z,19.78
2023-04-26T02:11:16.896Z,19.79
2023-04-26T02:12:15.857Z,19.79
2023-04-26T02:13:15.843Z,19.78
2023-04-26T02:14:16.897Z,19.77
2023-04-26T02:15:16.863Z,19.77
2023-04-26T02:16:16.951Z,19.77
2023-04-26T02:17:16.831Z,19.78
2023-04-26T02:18:16.821Z,19.77
2023-04-26T02:19:16.812Z,19.77
2023-04-26T02:20:15.802Z,19.76
2023-04-26T02:21:16.856Z,19.76
2023-04-26T02:22:15.787Z,19.76
2023-04-26T02:23:15.849Z,19.76
2023-04-26T02:24:16.794Z,19.76
2023-04-26T02:25:16.789Z,19.76
2023-04-26T02:26:16.780Z,19.76
2023-04-26T02:27:15.762Z,19.76
2023-04-26T02:28:16.745Z,19.76
2023-04-26T02:29:15.754Z,19.76
2023-04-26T02:30:16.752Z,19.76
2023-04-26T02:31:16.776Z,19.75
2023-04-26T02:32:16.721Z,19.75
2023-04-26T02:33:16.706Z,19.75
2023-04-26T02:34:15.707Z,19.75
2023-04-26T02:35:16.703Z,19.74
2023-04-26T02:36:16.743Z,19.75
2023-04-26T02:37:15.783Z,19.75
2023-04-26T02:38:15.692Z,19.75
2023-04-26T02:39:16.702Z,19.75
2023-04-26T02:40:15.668Z,19.74
2023-04-26T02:41:15.658Z,19.74
2023-04-26T02:42:15.670Z,19.74
2023-04-26T02:43:16.670Z,19.74
2023-04-26T02:44:16.648Z,19.74
2023-04-26T02:45:15.624Z,19.73
2023-04-26T02:46:17.386Z,19.73
2023-04-26T02:47:15.640Z,19.73
2023-04-26T02:48:15.622Z,19.73
2023-04-26T02:49:15.593Z,19.73
2023-04-26T02:50:16.601Z,19.73
2023-04-26T02:51:16.584Z,19.73
2023-04-26T02:52:16.599Z,19.73
2023-04-26T02:53:15.616Z,19.72
2023-04-26T02:54:15.580Z,19.73
2023-04-26T02:55:16.633Z,19.72
2023-04-26T02:56:16.543Z,19.72
2023-04-26T02:57:16.540Z,19.72
2023-04-26T02:58:15.545Z,19.72
2023-04-26T02:59:16.575Z,19.72
2023-04-26T03:00:16.551Z,19.71
2023-04-26T03:01:15.568Z,19.71
2023-04-26T03:02:15.614Z,19.71
2023-04-26T03:03:15.732Z,19.71
2023-04-26T03:04:16.701Z,19.71
2023-04-26T03:05:16.504Z,19.71
2023-04-26T03:06:16.487Z,19.71
2023-04-26T03:07:15.489Z,19.70
2023-04-26T03:08:15.513Z,19.70
2023-04-26T03:09:16.476Z,19.71
2023-04-26T03:10:16.483Z,19.70
2023-04-26T03:11:15.434Z,19.71
2023-04-26T03:12:16.474Z,19.71
2023-04-26T03:13:15.432Z,19.70
2023-04-26T03:14:15.440Z,19.70
2023-04-26T03:15:15.432Z,19.70
2023-04-26T03:16:15.466Z,19.70
2023-04-26T03:17:16.458Z,19.69
2023-04-26T03:18:15.398Z,19.70
2023-04-26T03:19:15.441Z,19.69
2023-04-26T03:20:16.433Z,19.69
2023-04-26T03:21:16.379Z,19.69
2023-04-26T03:22:15.370Z,19.69
2023-04-26T03:23:16.383Z,19.70
2023-04-26T03:24:15.386Z,19.70
2023-04-26T03:25:16.390Z,19.71
2023-04-26T03:26:16.388Z,19.72
2023-04-26T03:27:16.342Z,19.72
2023-04-26T03:28:16.380Z,19.72
2023-04-26T03:29:16.332Z,19.73
2023-04-26T03:30:16.364Z,19.74
2023-04-26T03:31:16.322Z,19.75
2023-04-26T03:32:16.382Z,19.75
2023-04-26T03:33:16.299Z,19.76
2023-04-26T03:34:15.282Z,19.77
2023-04-26T03:35:16.275Z,19.77
2023-04-26T03:36:16.367Z,19.78
2023-04-26T03:37:15.287Z,19.80
2023-04-26T03:38:15.308Z,19.80
2023-04-26T03:39:16.245Z,19.81
2023-04-26T03:40:16.232Z,19.82
2023-04-26T03:41:16.258Z,19.83
2023-04-26T03:42:15.237Z,19.84
2023-04-26T03:43:16.233Z,19.84
2023-04-26T03:44:16.221Z,19.85
2023-04-26T03:45:16.239Z,19.86
2023-04-26T03:46:16.260Z,19.87
2023-04-26T03:47:15.229Z,19.87
2023-04-26T03:48:16.203Z,19.89
2023-04-26T03:49:15.230Z,19.89
2023-04-26T03:50:15.190Z,19.90
2023-04-26T03:51:16.197Z,19.90
2023-04-26T03:52:16.221Z,19.91
2023-04-26T03:53:16.193Z,19.92
2023-04-26T03:54:16.185Z,19.93
2023-04-26T03:55:16.234Z,19.93
2023-04-26T03:56:15.236Z,19.94
2023-04-26T03:57:15.256Z,19.95
2023-04-26T03:58:15.273Z,19.95
2023-04-26T03:59:16.252Z,19.95
2023-04-26T04:00:15.266Z,19.95
2023-04-26T04:01:15.290Z,19.95
2023-04-26T04:02:15.396Z,19.97
2023-04-26T04:03:15.391Z,19.97
2023-04-26T04:04:16.505Z,19.96
2023-04-26T04:05:15.505Z,19.96
2023-04-26T04:06:15.339Z,19.96
2023-04-26T04:07:15.387Z,19.98
2023-04-26T04:08:15.355Z,19.98
2023-04-26T04:09:15.369Z,19.98
2023-04-26T04:10:16.361Z,19.98
2023-04-26T04:11:16.673Z,19.99
2023-04-26T04:12:16.417Z,19.99
2023-04-26T04:13:16.430Z,19.99
2023-04-26T04:14:16.512Z,19.99
2023-04-26T04:15:15.480Z,20.00
2023-04-26T04:16:15.523Z,20.00
2023-04-26T04:17:15.539Z,19.99
2023-04-26T04:18:16.630Z,20.00
2023-04-26T04:19:15.569Z,20.00
2023-04-26T04:20:16.606Z,20.00
2023-04-26T04:21:16.632Z,20.00
2023-04-26T04:22:15.662Z,20.00
2023-04-26T04:23:15.689Z,20.01
2023-04-26T04:24:16.720Z,20.01
2023-04-26T04:25:16.726Z,20.01
2023-04-26T04:26:16.773Z,20.01
2023-04-26T04:27:16.803Z,20.01
2023-04-26T04:28:17.022Z,20.01
2023-04-26T04:29:16.883Z,20.01
2023-04-26T04:30:15.885Z,20.01
2023-04-26T04:31:16.955Z,20.01
2023-04-26T04:32:16.972Z,20.01
2023-04-26T04:33:16.990Z,20.01
2023-04-26T04:34:15.999Z,20.02
2023-04-26T04:35:17.003Z,20.02
2023-04-26T04:36:17.049Z,20.03
2023-04-26T04:37:17.110Z,20.03
2023-04-26T04:38:17.142Z,20.03
2023-04-26T04:39:16.252Z,20.03
2023-04-26T04:40:17.234Z,20.03
2023-04-26T04:41:17.308Z,20.03
2023-04-26T04:42:17.320Z,20.04
2023-04-26T04:43:16.382Z,20.05
2023-04-26T04:44:17.416Z,20.04
2023-04-26T04:45:17.469Z,20.04
2023-04-26T04:46:17.497Z,20.05
2023-04-26T04:47:17.499Z,20.05
2023-04-26T04:48:17.554Z,20.06
2023-04-26T04:49:17.586Z,20.07
2023-04-26T04:50:17.643Z,20.07
2023-04-26T04:51:16.672Z,20.07
2023-04-26T04:52:18.802Z,20.08
2023-04-26T04:53:17.738Z,20.08
2023-04-26T04:54:17.823Z,20.09
2023-04-26T04:55:17.873Z,20.09
2023-04-26T04:56:17.932Z,20.09
2023-04-26T04:57:17.941Z,20.09
2023-04-26T04:58:17.988Z,20.09
2023-04-26T04:59:18.025Z,20.09
2023-04-26T05:00:18.066Z,20.10
2023-04-26T05:01:18.217Z,20.10
2023-04-26T05:02:18.313Z,20.11
2023-04-26T05:03:17.434Z,20.11
2023-04-26T05:04:18.509Z,20.11
2023-04-26T05:05:18.390Z,20.11
2023-04-26T05:06:18.499Z,20.12
2023-04-26T05:07:17.502Z,20.12
2023-04-26T05:08:17.602Z,20.13
2023-04-26T05:09:18.656Z,20.12
2023-04-26T05:10:17.729Z,20.12
2023-04-26T05:11:17.752Z,20.12
2023-04-26T05:12:18.849Z,20.13
2023-04-26T05:13:18.886Z,20.14
2023-04-26T05:14:18.953Z,20.14
2023-04-26T05:15:19.033Z,20.14
2023-04-26T05:16:19.158Z,20.14
2023-04-26T05:17:18.185Z,20.14
2023-04-26T05:18:19.204Z,20.14
2023-04-26T05:19:19.270Z,20.14
2023-04-26T05:20:18.345Z,20.14
2023-04-26T05:21:19.404Z,20.15
2023-04-26T05:22:19.468Z,20.15
2023-04-26T05:23:19.525Z,20.14
2023-04-26T05:24:18.595Z,20.15
2023-04-26T05:25:20.255Z,20.15
2023-04-26T05:26:18.659Z,20.15
2023-04-26T05:27:19.679Z,20.15
2023-04-26T05:28:18.677Z,20.15
2023-04-26T05:29:18.703Z,20.15
2023-04-26T05:30:18.627Z,20.15
2023-04-26T05:31:19.644Z,20.16
2023-04-26T05:32:18.700Z,20.16
2023-04-26T05:33:19.786Z,20.16
2023-04-26T05:34:19.088Z,20.16
2023-04-26T05:35:20.037Z,20.15
2023-04-26T05:36:19.605Z,20.16
2023-04-26T05:37:18.572Z,20.16
2023-04-26T05:38:19.766Z,20.16
2023-04-26T05:39:19.692Z,20.18
2023-04-26T05:40:19.568Z,20.18
2023-04-26T05:41:18.654Z,20.18
2023-04-26T05:42:18.556Z,20.19
2023-04-26T05:43:19.063Z,20.19
2023-04-26T05:44:19.821Z,20.21
2023-04-26T05:45:19.854Z,20.22
2023-04-26T05:46:20.192Z,20.22
2023-04-26T05:47:19.101Z,20.23
2023-04-26T05:48:20.263Z,20.25
2023-04-26T05:49:20.050Z,20.26
2023-04-26T05:50:20.101Z,20.27
2023-04-26T05:51:20.216Z,20.28
2023-04-26T05:52:19.817Z,20.28
2023-04-26T05:53:19.926Z,20.28
2023-04-26T05:54:20.095Z,20.31
2023-04-26T05:55:20.211Z,20.33
2023-04-26T05:56:20.239Z,20.36
2023-04-26T05:58:20.613Z,20.42
2023-04-26T05:59:20.581Z,20.46
2023-04-26T06:00:20.317Z,20.51
2023-04-26T06:01:20.364Z,20.59
2023-04-26T06:02:21.003Z,20.63
2023-04-26T06:03:21.017Z,20.68
2023-04-26T06:04:20.250Z,20.74
2023-04-26T06:05:20.830Z,20.79
2023-04-26T06:06:20.512Z,20.89
2023-04-26T06:07:20.502Z,20.96
2023-04-26T06:08:20.278Z,20.99
2023-04-26T06:09:20.319Z,21.02
2023-04-26T06:10:20.361Z,21.04
2023-04-26T06:11:19.417Z,21.07
2023-04-26T06:12:19.495Z,21.11
2023-04-26T06:13:20.488Z,21.13
2023-04-26T06:14:29.984Z,21.16
2023-04-26T06:15:20.566Z,21.20
2023-04-26T06:16:20.620Z,21.26
2023-04-26T06:17:19.676Z,21.30
2023-04-26T06:18:20.505Z,21.34
2023-04-26T06:19:19.517Z,21.39
2023-04-26T06:20:20.482Z,21.46
2023-04-26T06:21:20.517Z,21.52
2023-04-26T06:22:20.495Z,21.55
2023-04-26T06:23:20.507Z,21.56
2023-04-26T06:24:20.455Z,21.59
2023-04-26T06:25:20.473Z,21.62
2023-04-26T06:26:19.443Z,21.66
2023-04-26T06:27:19.444Z,21.71
2023-04-26T06:28:19.448Z,21.75
2023-04-26T06:29:19.481Z,21.78
2023-04-26T06:30:19.436Z,21.82
2023-04-26T06:31:20.433Z,21.86
2023-04-26T06:32:20.416Z,21.92
2023-04-26T06:33:19.402Z,21.97
2023-04-26T06:34:20.409Z,22.05
2023-04-26T06:35:20.647Z,22.15
2023-04-26T06:36:20.526Z,22.24
2023-04-26T06:37:20.424Z,22.26
2023-04-26T06:38:20.597Z,22.27
2023-04-26T06:39:20.404Z,22.28
2023-04-26T06:40:20.363Z,22.30
2023-04-26T06:41:19.622Z,22.30
2023-04-26T06:42:19.435Z,22.31
2023-04-26T06:43:20.351Z,22.31
2023-04-26T06:44:20.354Z,22.29
2023-04-26T06:45:20.324Z,22.28
2023-04-26T06:46:20.410Z,22.30
2023-04-26T06:47:20.413Z,22.30
2023-04-26T06:48:20.328Z,22.32
2023-04-26T06:49:20.421Z,22.35
2023-04-26T06:50:20.296Z,22.40
2023-04-26T06:51:20.388Z,22.44
2023-04-26T06:52:21.513Z,22.47
2023-04-26T06:53:23.041Z,22.49
2023-04-26T06:54:20.805Z,22.49
2023-04-26T06:55:19.587Z,22.47
2023-04-26T06:56:20.450Z,22.41
2023-04-26T06:57:19.528Z,22.40
2023-04-26T06:58:20.983Z,22.42
2023-04-26T06:59:19.452Z,22.43
2023-04-26T07:00:19.432Z,22.42
2023-04-26T07:01:20.476Z,22.39
2023-04-26T07:02:20.537Z,22.33
2023-04-26T07:03:20.524Z,22.29
2023-04-26T07:04:19.721Z,22.24
2023-04-26T07:05:20.902Z,22.17
2023-04-26T07:06:19.412Z,22.08
2023-04-26T07:07:19.423Z,22.00
2023-04-26T07:08:20.395Z,21.97
2023-04-26T07:09:20.394Z,21.96
2023-04-26T07:10:20.365Z,21.97
2023-04-26T07:11:19.353Z,21.97
2023-04-26T07:12:19.336Z,21.98
2023-04-26T07:13:20.363Z,21.99
2023-04-26T07:14:20.380Z,22.00
2023-04-26T07:15:19.392Z,22.00
2023-04-26T07:16:20.363Z,22.02
2023-04-26T07:17:20.322Z,22.03
2023-04-26T07:18:20.468Z,22.05
2023-04-26T07:19:19.279Z,22.06
2023-04-26T07:20:20.337Z,22.07
2023-04-26T07:21:20.288Z,22.10
2023-04-26T07:22:19.414Z,22.12
2023-04-26T07:23:20.309Z,22.13
2023-04-26T07:24:19.256Z,22.15
2023-04-26T07:25:20.361Z,22.18
2023-04-26T07:26:20.226Z,22.19
2023-04-26T07:27:20.303Z,22.22
2023-04-26T07:28:19.211Z,22.24
2023-04-26T07:29:19.234Z,22.26
2023-04-26T07:30:20.202Z,22.28
2023-04-26T07:31:20.232Z,22.30
2023-04-26T07:32:20.228Z,22.32
2023-04-26T07:33:20.222Z,22.34
2023-04-26T07:34:20.245Z,22.34
2023-04-26T07:35:19.179Z,22.35
2023-04-26T07:36:20.661Z,22.36
2023-04-26T07:37:20.404Z,22.37
2023-04-26T07:38:20.401Z,22.40
2023-04-26T07:39:19.530Z,22.42
2023-04-26T07:40:20.778Z,22.44
2023-04-26T07:41:20.457Z,22.44
2023-04-26T07:42:20.445Z,22.44
2023-04-26T07:43:20.731Z,22.45
2023-04-26T07:44:19.916Z,22.46
2023-04-26T07:45:20.659Z,22.48
2023-04-26T07:46:20.782Z,22.47
2023-04-26T07:47:20.742Z,22.48
2023-04-26T07:48:21.004Z,22.49
2023-04-26T07:49:20.721Z,22.50
2023-04-26T07:50:20.712Z,22.50
2023-04-26T07:51:20.746Z,22.49
2023-04-26T07:52:19.716Z,22.47
2023-04-26T07:53:20.976Z,22.45
2023-04-26T07:54:20.738Z,22.42
2023-04-26T07:55:19.748Z,22.39
2023-04-26T07:56:20.697Z,22.37
2023-04-26T07:57:20.821Z,22.35
2023-04-26T07:58:20.757Z,22.31
2023-04-26T07:59:19.680Z,22.30
2023-04-26T08:00:19.678Z,22.28
2023-04-26T08:01:20.672Z,22.29
2023-04-26T08:02:21.729Z,22.31
2023-04-26T08:03:20.897Z,22.36
2023-04-26T08:04:20.728Z,22.38
2023-04-26T08:05:20.815Z,22.39
2023-04-26T08:06:19.775Z,22.39
2023-04-26T08:07:20.644Z,22.40
2023-04-26T08:08:20.681Z,22.40
2023-04-26T08:09:19.646Z,22.42
2023-04-26T08:10:20.622Z,22.48
2023-04-26T08:11:20.711Z,22.55
2023-04-26T08:12:20.609Z,22.73
2023-04-26T08:13:19.635Z,22.69
2023-04-26T08:14:19.585Z,22.63
2023-04-26T08:15:19.602Z,22.61
2023-04-26T08:16:20.651Z,22.58
2023-04-26T08:17:20.655Z,22.56
2023-04-26T08:18:20.607Z,22.55
2023-04-26T08:19:19.543Z,22.55
2023-04-26T08:20:19.561Z,22.55
2023-04-26T08:21:19.550Z,22.54
2023-04-26T08:22:19.538Z,22.57
2023-04-26T08:23:20.534Z,22.60
2023-04-26T08:24:19.611Z,22.58
2023-04-26T08:25:20.620Z,22.58
2023-04-26T08:26:19.641Z,22.55
2023-04-26T08:27:19.715Z,22.53
2023-04-26T08:28:21.028Z,22.52
2023-04-26T08:29:19.854Z,22.50
2023-04-26T08:30:20.811Z,22.50
2023-04-26T08:31:20.992Z,22.52
2023-04-26T08:32:19.900Z,22.67
2023-04-26T08:33:20.918Z,22.92
2023-04-26T08:34:19.916Z,23.19
2023-04-26T08:35:19.965Z,23.35
2023-04-26T08:36:21.015Z,23.50
2023-04-26T08:37:20.012Z,23.60
2023-04-26T08:38:21.068Z,23.70
2023-04-26T08:39:21.042Z,23.77
2023-04-26T08:40:21.072Z,23.81
2023-04-26T08:41:21.083Z,23.76
2023-04-26T08:42:21.116Z,23.64
2023-04-26T08:43:20.171Z,23.53
2023-04-26T08:44:20.174Z,23.42
2023-04-26T08:45:21.340Z,23.34
2023-04-26T08:46:21.182Z,23.28
2023-04-26T08:47:21.193Z,23.25
2023-04-26T08:48:20.177Z,23.23
2023-04-26T08:49:21.232Z,23.20
2023-04-26T08:50:21.217Z,23.19
2023-04-26T08:51:20.225Z,23.19
2023-04-26T08:52:21.220Z,23.21
2023-04-26T08:53:20.223Z,23.28
2023-04-26T08:54:20.221Z,23.29
2023-04-26T08:55:21.192Z,23.29
2023-04-26T08:56:21.329Z,23.27
2023-04-26T08:57:21.270Z,23.32
2023-04-26T08:58:21.630Z,23.31
2023-04-26T08:59:21.207Z,23.29
2023-04-26T09:00:21.252Z,23.28
2023-04-26T09:01:20.303Z,23.27
2023-04-26T09:02:20.343Z,23.26
2023-04-26T09:03:21.306Z,23.27
2023-04-26T09:04:21.503Z,23.26
2023-04-26T09:05:20.286Z,23.27
2023-04-26T09:06:21.241Z,23.28
2023-04-26T09:07:21.260Z,23.30
2023-04-26T09:08:21.259Z,23.31
2023-04-26T09:09:20.270Z,23.31
2023-04-26T09:10:21.628Z,23.32
2023-04-26T09:11:21.284Z,23.31
2023-04-26T09:12:21.291Z,23.30
2023-04-26T09:13:21.501Z,23.33
2023-04-26T09:14:21.291Z,23.36
2023-04-26T09:15:20.275Z,23.35
2023-04-26T09:16:20.334Z,23.35
2023-04-26T09:17:21.442Z,23.36
2023-04-26T09:18:21.237Z,23.35
2023-04-26T09:19:21.268Z,23.35
2023-04-26T09:20:21.288Z,23.35
2023-04-26T09:21:21.274Z,23.36
2023-04-26T09:22:21.249Z,23.50
2023-04-26T09:23:21.346Z,23.65
2023-04-26T09:24:20.238Z,23.68
2023-04-26T09:25:22.679Z,23.64
2023-04-26T09:26:21.234Z,23.56
2023-04-26T09:27:21.282Z,23.45
2023-04-26T09:28:20.229Z,23.21
2023-04-26T09:29:21.266Z,23.00
2023-04-26T09:30:21.195Z,22.78
2023-04-26T09:31:20.229Z,22.67
2023-04-26T09:32:21.207Z,22.68
2023-04-26T09:33:21.221Z,22.71
2023-04-26T09:34:21.198Z,22.77
2023-04-26T09:35:21.227Z,22.85
2023-04-26T09:36:21.163Z,22.88
2023-04-26T09:37:21.162Z,22.94
2023-04-26T09:38:21.149Z,22.96
2023-04-26T09:39:21.150Z,23.03
2023-04-26T09:40:21.162Z,23.10
2023-04-26T09:41:21.182Z,23.16
2023-04-26T09:42:20.147Z,23.21
2023-04-26T09:43:21.118Z,23.28
2023-04-26T09:44:21.094Z,23.32
2023-04-26T09:45:21.078Z,23.35
2023-04-26T09:46:21.105Z,23.40
2023-04-26T09:47:20.147Z,23.37
2023-04-26T09:48:20.088Z,23.26
2023-04-26T09:49:21.554Z,23.03
2023-04-26T09:50:20.104Z,22.98
2023-04-26T09:51:20.079Z,22.96
2023-04-26T09:52:21.050Z,22.99
2023-04-26T09:53:21.573Z,23.09
2023-04-26T09:54:21.059Z,23.25
2023-04-26T09:55:34.100Z,23.34
2023-04-26T09:56:21.091Z,23.44
2023-04-26T09:57:21.297Z,23.54
2023-04-26T09:58:21.071Z,23.64
2023-04-26T09:59:20.990Z,23.73
2023-04-26T10:00:20.979Z,23.79
2023-04-26T10:01:20.159Z,23.88
2023-04-26T10:02:20.075Z,23.89
2023-04-26T10:03:21.117Z,23.95
2023-04-26T10:04:21.029Z,24.02
2023-04-26T10:05:22.128Z,24.04
2023-04-26T10:06:20.075Z,23.97
2023-04-26T10:07:19.936Z,24.06
2023-04-26T10:08:20.922Z,24.06
2023-04-26T10:09:20.949Z,24.10
2023-04-26T10:10:19.932Z,24.14
2023-04-26T10:11:20.939Z,24.16
2023-04-26T10:12:19.959Z,24.20
2023-04-26T10:13:19.906Z,24.25
2023-04-26T10:14:21.262Z,24.29
2023-04-26T10:15:21.073Z,24.37
2023-04-26T10:16:19.971Z,24.41
2023-04-26T10:17:21.244Z,24.49
2023-04-26T10:18:20.892Z,24.55
2023-04-26T10:19:20.881Z,24.63
2023-04-26T10:20:20.880Z,24.64
2023-04-26T10:21:20.854Z,24.57
2023-04-26T10:22:20.832Z,24.51
2023-04-26T10:23:20.931Z,24.48
2023-04-26T10:24:20.845Z,24.45
2023-04-26T10:25:19.870Z,24.46
2023-04-26T10:26:19.861Z,24.54
2023-04-26T10:27:20.943Z,24.55
2023-04-26T10:28:19.921Z,24.48
2023-04-26T10:29:20.904Z,24.42
2023-04-26T10:30:20.964Z,24.43
2023-04-26T10:31:20.990Z,24.48
2023-04-26T10:32:20.932Z,24.48
2023-04-26T10:33:19.951Z,24.55
2023-04-26T10:34:20.917Z,24.55
2023-04-26T10:35:20.931Z,24.49
2023-04-26T10:36:20.936Z,24.43
2023-04-26T10:37:21.050Z,24.49
2023-04-26T10:38:21.209Z,24.56
2023-04-26T10:39:20.937Z,24.60
2023-04-26T10:40:20.924Z,24.60
2023-04-26T10:41:20.945Z,24.53
2023-04-26T10:42:21.944Z,24.48
2023-04-26T10:43:19.976Z,24.41
2023-04-26T10:44:20.914Z,24.29
2023-04-26T10:45:20.968Z,24.33
2023-04-26T10:46:20.893Z,24.29
2023-04-26T10:47:19.903Z,24.26
2023-04-26T10:48:20.909Z,24.25
2023-04-26T10:49:20.890Z,24.19
2023-04-26T10:50:20.869Z,24.22
2023-04-26T10:51:20.846Z,24.21
2023-04-26T10:52:19.873Z,24.20
2023-04-26T10:53:19.874Z,24.19
2023-04-26T10:54:19.864Z,24.20
2023-04-26T10:55:19.839Z,24.17
2023-04-26T10:56:20.812Z,24.13
2023-04-26T10:57:19.823Z,24.08
2023-04-26T10:58:19.797Z,24.05
2023-04-26T10:59:36.105Z,24.05
2023-04-26T11:00:20.825Z,23.99
2023-04-26T11:01:20.819Z,23.99
2023-04-26T11:02:20.798Z,23.94
2023-04-26T11:03:20.986Z,23.96
2023-04-26T11:04:20.952Z,23.92
2023-04-26T11:05:20.745Z,23.96
2023-04-26T11:06:20.739Z,24.00
2023-04-26T11:07:20.742Z,24.00
2023-04-26T11:08:20.727Z,24.04
2023-04-26T11:09:20.796Z,24.07
2023-04-26T11:10:20.726Z,24.09
2023-04-26T11:11:19.724Z,24.08
2023-04-26T11:12:19.829Z,24.09
2023-04-26T11:13:20.717Z,24.06
2023-04-26T11:14:20.683Z,24.03
2023-04-26T11:15:19.683Z,24.06
2023-04-26T11:16:20.776Z,24.06
2023-04-26T11:17:20.729Z,24.12
2023-04-26T11:18:19.678Z,24.15
2023-04-26T11:19:20.696Z,24.18
2023-04-26T11:20:19.663Z,24.20
2023-04-26T11:21:19.635Z,24.21
2023-04-26T11:22:19.664Z,24.21
2023-04-26T11:23:20.619Z,24.21
2023-04-26T11:24:19.614Z,24.16
2023-04-26T11:25:20.772Z,24.16
2023-04-26T11:26:20.619Z,24.20
2023-04-26T11:27:20.629Z,24.20
2023-04-26T11:28:20.631Z,24.19
2023-04-26T11:29:19.658Z,24.18
2023-04-26T11:30:20.644Z,24.17
2023-04-26T11:31:20.605Z,24.18
2023-04-26T11:32:19.569Z,24.18
2023-04-26T11:33:20.620Z,24.19
2023-04-26T11:34:19.582Z,24.22
2023-04-26T11:35:20.606Z,24.24
2023-04-26T11:36:19.667Z,24.31
2023-04-26T11:37:20.551Z,24.34
2023-04-26T11:38:20.529Z,24.32
2023-04-26T11:39:20.536Z,24.32
2023-04-26T11:40:20.551Z,24.36
2023-04-26T11:41:20.604Z,24.39
2023-04-26T11:42:20.516Z,24.42
2023-04-26T11:43:19.587Z,24.44
2023-04-26T11:44:20.481Z,24.44
2023-04-26T11:45:20.487Z,24.41
2023-04-26T11:46:20.579Z,24.42
2023-04-26T11:47:19.511Z,24.42
2023-04-26T11:48:19.600Z,24.44
2023-04-26T11:49:20.482Z,24.42
2023-04-26T11:50:19.467Z,24.36
2023-04-26T11:51:20.426Z,24.34
2023-04-26T11:52:20.536Z,24.30
2023-04-26T11:53:20.425Z,24.30
2023-04-26T11:54:20.432Z,24.28
2023-04-26T11:55:20.439Z,24.27
2023-04-26T11:56:20.444Z,24.27
2023-04-26T11:57:19.571Z,24.26
2023-04-26T11:58:20.383Z,24.25
2023-04-26T11:59:19.406Z,24.27
2023-04-26T12:00:20.390Z,24.27
2023-04-26T12:01:20.363Z,24.27
2023-04-26T12:02:19.522Z,24.29
2023-04-26T12:03:19.501Z,24.29
2023-04-26T12:04:20.639Z,24.29
2023-04-26T12:05:19.389Z,24.28
2023-04-26T12:06:19.351Z,24.28
2023-04-26T12:07:20.357Z,24.29
2023-04-26T12:08:19.322Z,24.27
2023-04-26T12:09:19.312Z,24.27
2023-04-26T12:10:20.321Z,24.27
2023-04-26T12:11:19.317Z,24.26
2023-04-26T12:12:19.336Z,24.25
2023-04-26T12:13:20.323Z,24.25
2023-04-26T12:14:20.280Z,24.27
2023-04-26T12:15:19.278Z,24.30
2023-04-26T12:16:26.250Z,24.29
2023-04-26T12:17:20.409Z,24.29
2023-04-26T12:18:19.300Z,24.30
2023-04-26T12:19:19.250Z,24.32
2023-04-26T12:20:19.582Z,24.30
2023-04-26T12:21:20.218Z,24.29
2023-04-26T12:22:19.283Z,24.30
2023-04-26T12:23:19.331Z,24.31
2023-04-26T12:24:19.373Z,24.32
2023-04-26T12:25:20.241Z,24.30
2023-04-26T12:26:20.194Z,24.33
2023-04-26T12:27:19.185Z,24.28
2023-04-26T12:28:20.201Z,24.28
2023-04-26T12:29:20.236Z,24.21
2023-04-26T12:30:19.173Z,24.12
2023-04-26T12:31:20.198Z,24.13
2023-04-26T12:32:20.781Z,24.11
2023-04-26T12:33:19.171Z,24.11
2023-04-26T12:34:20.272Z,24.11
2023-04-26T12:35:19.134Z,24.10
2023-04-26T12:36:20.139Z,24.12
2023-04-26T12:37:20.119Z,24.12
2023-04-26T12:38:20.138Z,24.09
2023-04-26T12:39:20.115Z,24.09
2023-04-26T12:40:19.105Z,24.09
2023-04-26T12:41:19.107Z,24.09
2023-04-26T12:42:19.104Z,24.07
2023-04-26T12:43:19.090Z,24.04
2023-04-26T12:44:22.103Z,24.05
2023-04-26T12:45:20.104Z,24.04
2023-04-26T12:46:19.097Z,24.02
2023-04-26T12:47:20.091Z,24.03
2023-04-26T12:48:19.101Z,24.02
2023-04-26T12:49:20.064Z,24.01
2023-04-26T12:50:20.010Z,23.99
2023-04-26T12:51:20.013Z,23.99
2023-04-26T12:52:20.003Z,23.98
2023-04-26T12:53:20.011Z,23.97